sensor_id;sensor_type;location;lat;lon;timestamp;temperature;humidity
31975;DHT22;18500;43.618;1.474;2023-02-11T00:01:29;-0.10;1.00
31975;DHT22;18500;43.618;1.474;2023-02-11T00:03:56;-0.20;1.00
31975;DHT22;18500;43.618;1.474;2023-02-11T00:06:22;-0.20;1.00
31975;DHT22;18500;43.618;1.474;2023-02-11T00:08:48;-0.20;1.00
31975;DHT22;18500;43.618;1.474;2023-02-11T00:11:17;-0.20;1.00
31975;DHT22;18500;43.618;1.474;2023-02-11T00:13:44;-0.20;1.00
31975;DHT22;18500;43.618;1.474;2023-02-11T00:16:16;-0.20;1.00
31975;DHT22;18500;43.618;1.474;2023-02-11T00:18:42;-0.20;1.00
31975;DHT22;18500;43.618;1.474;2023-02-11T00:21:10;-0.30;1.00
31975;DHT22;18500;43.618;1.474;2023-02-11T00:23:36;-0.50;1.00
31975;DHT22;18500;43.618;1.474;2023-02-11T00:26:02;-0.60;1.00
31975;DHT22;18500;43.618;1.474;2023-02-11T00:28:28;-0.70;1.00
31975;DHT22;18500;43.618;1.474;2023-02-11T00:30:57;-0.80;1.00
31975;DHT22;18500;43.618;1.474;2023-02-11T00:33:23;-0.80;1.00
31975;DHT22;18500;43.618;1.474;2023-02-11T00:35:49;-0.90;1.00
31975;DHT22;18500;43.618;1.474;2023-02-11T00:38:15;-0.90;1.00
31975;DHT22;18500;43.618;1.474;2023-02-11T00:40:41;-0.90;1.00
31975;DHT22;18500;43.618;1.474;2023-02-11T00:43:06;-1.00;1.00
31975;DHT22;18500;43.618;1.474;2023-02-11T00:45:32;-1.00;1.00
31975;DHT22;18500;43.618;1.474;2023-02-11T00:47:57;-1.10;1.00
31975;DHT22;18500;43.618;1.474;2023-02-11T00:50:23;-1.10;1.00
31975;DHT22;18500;43.618;1.474;2023-02-11T00:52:49;-1.10;1.00
31975;DHT22;18500;43.618;1.474;2023-02-11T00:55:15;-1.10;1.00
31975;DHT22;18500;43.618;1.474;2023-02-11T00:57:41;-1.10;1.00
31975;DHT22;18500;43.618;1.474;2023-02-11T01:00:08;-1.10;1.00
31975;DHT22;18500;43.618;1.474;2023-02-11T01:02:34;-1.10;1.00
31975;DHT22;18500;43.618;1.474;2023-02-11T01:04:59;-1.20;1.00
31975;DHT22;18500;43.618;1.474;2023-02-11T01:07:26;-1.10;1.00
31975;DHT22;18500;43.618;1.474;2023-02-11T01:09:52;-1.10;1.00
31975;DHT22;18500;43.618;1.474;2023-02-11T01:12:18;-1.20;1.00
31975;DHT22;18500;43.618;1.474;2023-02-11T01:14:44;-1.20;1.00
31975;DHT22;18500;43.618;1.474;2023-02-11T01:17:10;-1.20;1.00
31975;DHT22;18500;43.618;1.474;2023-02-11T01:19:36;-1.10;1.00
31975;DHT22;18500;43.618;1.474;2023-02-11T01:22:03;-1.20;1.00
31975;DHT22;18500;43.618;1.474;2023-02-11T01:24:28;-1.20;1.00
31975;DHT22;18500;43.618;1.474;2023-02-11T01:26:54;-1.20;1.00
31975;DHT22;18500;43.618;1.474;2023-02-11T01:29:20;-1.20;1.00
31975;DHT22;18500;43.618;1.474;2023-02-11T01:31:46;-1.10;1.00
31975;DHT22;18500;43.618;1.474;2023-02-11T01:34:12;-1.00;1.00
31975;DHT22;18500;43.618;1.474;2023-02-11T01:36:38;-1.00;1.00
31975;DHT22;18500;43.618;1.474;2023-02-11T01:39:04;-1.00;1.00
31975;DHT22;18500;43.618;1.474;2023-02-11T01:41:30;-1.00;1.00
31975;DHT22;18500;43.618;1.474;2023-02-11T01:43:56;-1.00;1.00
31975;DHT22;18500;43.618;1.474;2023-02-11T01:46:34;-1.00;1.00
31975;DHT22;18500;43.618;1.474;2023-02-11T01:49:17;-1.00;1.00
31975;DHT22;18500;43.618;1.474;2023-02-11T01:54:45;-1.10;1.00
31975;DHT22;18500;43.618;1.474;2023-02-11T01:57:33;-1.10;1.00
31975;DHT22;18500;43.618;1.474;2023-02-11T02:00:12;-1.10;1.00
31975;DHT22;18500;43.618;1.474;2023-02-11T02:03:14;-1.10;1.00
31975;DHT22;18500;43.618;1.474;2023-02-11T02:05:48;-1.10;1.00
31975;DHT22;18500;43.618;1.474;2023-02-11T02:08:23;-1.20;1.00
31975;DHT22;18500;43.618;1.474;2023-02-11T02:10:54;-1.20;1.00
31975;DHT22;18500;43.618;1.474;2023-02-11T02:13:24;-1.10;1.00
31975;DHT22;18500;43.618;1.474;2023-02-11T02:16:11;-1.10;1.00
31975;DHT22;18500;43.618;1.474;2023-02-11T02:27:24;-1.40;1.00
31975;DHT22;18500;43.618;1.474;2023-02-11T02:41:13;-1.90;1.00
31975;DHT22;18500;43.618;1.474;2023-02-11T02:43:43;-1.90;1.00
31975;DHT22;18500;43.618;1.474;2023-02-11T02:48:38;-1.90;1.00
31975;DHT22;18500;43.618;1.474;2023-02-11T02:51:47;-1.90;1.00
31975;DHT22;18500;43.618;1.474;2023-02-11T02:57:11;-2.00;1.00
31975;DHT22;18500;43.618;1.474;2023-02-11T03:02:58;-2.00;1.00
31975;DHT22;18500;43.618;1.474;2023-02-11T03:05:22;-1.90;1.00
31975;DHT22;18500;43.618;1.474;2023-02-11T03:10:29;-2.00;1.00
31975;DHT22;18500;43.618;1.474;2023-02-11T03:12:56;-1.90;1.00
31975;DHT22;18500;43.618;1.474;2023-02-11T03:15:24;-1.90;1.00
31975;DHT22;18500;43.618;1.474;2023-02-11T03:17:53;-1.90;1.00
31975;DHT22;18500;43.618;1.474;2023-02-11T03:20:21;-2.00;1.00
31975;DHT22;18500;43.618;1.474;2023-02-11T03:25:45;-2.00;1.00
31975;DHT22;18500;43.618;1.474;2023-02-11T03:28:38;-2.00;1.00
31975;DHT22;18500;43.618;1.474;2023-02-11T03:34:17;-1.90;1.00
31975;DHT22;18500;43.618;1.474;2023-02-11T03:36:44;-1.80;1.00
31975;DHT22;18500;43.618;1.474;2023-02-11T03:39:23;-1.80;1.00
31975;DHT22;18500;43.618;1.474;2023-02-11T03:41:54;-1.80;1.00
31975;DHT22;18500;43.618;1.474;2023-02-11T03:44:22;-1.80;1.00
31975;DHT22;18500;43.618;1.474;2023-02-11T03:46:50;-1.80;1.00
31975;DHT22;18500;43.618;1.474;2023-02-11T03:49:19;-1.80;1.00
31975;DHT22;18500;43.618;1.474;2023-02-11T03:51:48;-1.80;1.00
31975;DHT22;18500;43.618;1.474;2023-02-11T03:54:20;-1.80;1.00
31975;DHT22;18500;43.618;1.474;2023-02-11T03:56:52;-1.80;1.00
31975;DHT22;18500;43.618;1.474;2023-02-11T03:59:18;-1.80;1.00
31975;DHT22;18500;43.618;1.474;2023-02-11T04:01:44;-1.80;1.00
31975;DHT22;18500;43.618;1.474;2023-02-11T04:04:10;-1.80;1.00
31975;DHT22;18500;43.618;1.474;2023-02-11T04:06:36;-1.80;1.00
31975;DHT22;18500;43.618;1.474;2023-02-11T04:09:02;-1.80;1.00
31975;DHT22;18500;43.618;1.474;2023-02-11T04:11:28;-1.80;1.00
31975;DHT22;18500;43.618;1.474;2023-02-11T04:13:53;-1.80;1.00
31975;DHT22;18500;43.618;1.474;2023-02-11T04:16:19;-1.80;1.00
31975;DHT22;18500;43.618;1.474;2023-02-11T04:18:45;-1.90;1.00
31975;DHT22;18500;43.618;1.474;2023-02-11T04:21:10;-2.00;1.00
31975;DHT22;18500;43.618;1.474;2023-02-11T04:23:36;-2.20;1.00
31975;DHT22;18500;43.618;1.474;2023-02-11T04:26:02;-2.30;1.00
31975;DHT22;18500;43.618;1.474;2023-02-11T04:28:28;-2.30;1.00
31975;DHT22;18500;43.618;1.474;2023-02-11T04:30:54;-2.30;1.00
31975;DHT22;18500;43.618;1.474;2023-02-11T04:33:20;-2.30;1.00
31975;DHT22;18500;43.618;1.474;2023-02-11T04:35:46;-2.40;1.00
31975;DHT22;18500;43.618;1.474;2023-02-11T04:38:12;-2.40;1.00
31975;DHT22;18500;43.618;1.474;2023-02-11T04:40:38;-2.50;1.00
31975;DHT22;18500;43.618;1.474;2023-02-11T04:43:04;-2.50;1.00
31975;DHT22;18500;43.618;1.474;2023-02-11T04:45:30;-2.60;1.00
31975;DHT22;18500;43.618;1.474;2023-02-11T04:47:56;-2.60;1.00
31975;DHT22;18500;43.618;1.474;2023-02-11T04:50:22;-2.60;1.00
31975;DHT22;18500;43.618;1.474;2023-02-11T04:52:47;-2.60;1.00
31975;DHT22;18500;43.618;1.474;2023-02-11T04:55:13;-2.60;1.00
31975;DHT22;18500;43.618;1.474;2023-02-11T04:57:39;-2.60;1.00
31975;DHT22;18500;43.618;1.474;2023-02-11T05:00:05;-2.60;1.00
31975;DHT22;18500;43.618;1.474;2023-02-11T05:02:31;-2.60;1.00
31975;DHT22;18500;43.618;1.474;2023-02-11T05:04:57;-2.60;1.00
31975;DHT22;18500;43.618;1.474;2023-02-11T05:07:23;-2.60;1.00
31975;DHT22;18500;43.618;1.474;2023-02-11T05:09:48;-2.60;1.00
31975;DHT22;18500;43.618;1.474;2023-02-11T05:12:14;-2.60;1.00
31975;DHT22;18500;43.618;1.474;2023-02-11T05:14:40;-2.60;1.00
31975;DHT22;18500;43.618;1.474;2023-02-11T05:17:06;-2.70;1.00
31975;DHT22;18500;43.618;1.474;2023-02-11T05:19:32;-2.60;1.00
31975;DHT22;18500;43.618;1.474;2023-02-11T05:21:57;-2.60;1.00
31975;DHT22;18500;43.618;1.474;2023-02-11T05:24:23;-2.60;1.00
31975;DHT22;18500;43.618;1.474;2023-02-11T05:26:49;-2.50;1.00
31975;DHT22;18500;43.618;1.474;2023-02-11T05:29:14;-2.50;1.00
31975;DHT22;18500;43.618;1.474;2023-02-11T05:31:40;-2.60;1.00
31975;DHT22;18500;43.618;1.474;2023-02-11T05:34:06;-2.60;1.00
31975;DHT22;18500;43.618;1.474;2023-02-11T05:36:31;-2.70;1.00
31975;DHT22;18500;43.618;1.474;2023-02-11T05:38:57;-2.70;1.00
31975;DHT22;18500;43.618;1.474;2023-02-11T05:41:23;-2.80;1.00
31975;DHT22;18500;43.618;1.474;2023-02-11T05:43:49;-2.80;1.00
31975;DHT22;18500;43.618;1.474;2023-02-11T05:46:18;-2.80;1.00
31975;DHT22;18500;43.618;1.474;2023-02-11T05:48:44;-2.90;1.00
31975;DHT22;18500;43.618;1.474;2023-02-11T05:51:09;-2.80;1.00
31975;DHT22;18500;43.618;1.474;2023-02-11T05:53:35;-2.90;1.00
31975;DHT22;18500;43.618;1.474;2023-02-11T05:56:01;-2.90;1.00
31975;DHT22;18500;43.618;1.474;2023-02-11T05:58:27;-2.90;1.00
31975;DHT22;18500;43.618;1.474;2023-02-11T06:00:52;-2.80;1.00
31975;DHT22;18500;43.618;1.474;2023-02-11T06:03:18;-2.90;1.00
31975;DHT22;18500;43.618;1.474;2023-02-11T06:05:44;-2.90;1.00
31975;DHT22;18500;43.618;1.474;2023-02-11T06:08:10;-2.80;1.00
31975;DHT22;18500;43.618;1.474;2023-02-11T06:10:36;-2.70;1.00
31975;DHT22;18500;43.618;1.474;2023-02-11T06:13:02;-2.70;1.00
31975;DHT22;18500;43.618;1.474;2023-02-11T06:15:28;-2.60;1.00
31975;DHT22;18500;43.618;1.474;2023-02-11T06:17:54;-2.60;1.00
31975;DHT22;18500;43.618;1.474;2023-02-11T06:20:20;-2.70;1.00
31975;DHT22;18500;43.618;1.474;2023-02-11T06:22:46;-2.70;1.00
31975;DHT22;18500;43.618;1.474;2023-02-11T06:25:11;-2.70;1.00
31975;DHT22;18500;43.618;1.474;2023-02-11T06:27:38;-2.70;1.00
31975;DHT22;18500;43.618;1.474;2023-02-11T06:30:04;-2.80;1.00
31975;DHT22;18500;43.618;1.474;2023-02-11T06:32:31;-2.80;1.00
31975;DHT22;18500;43.618;1.474;2023-02-11T06:34:57;-3.00;1.00
31975;DHT22;18500;43.618;1.474;2023-02-11T06:37:22;-3.00;1.00
31975;DHT22;18500;43.618;1.474;2023-02-11T06:39:48;-3.10;1.00
31975;DHT22;18500;43.618;1.474;2023-02-11T06:42:14;-3.10;1.00
31975;DHT22;18500;43.618;1.474;2023-02-11T06:44:39;-3.10;1.00
31975;DHT22;18500;43.618;1.474;2023-02-11T06:47:06;-3.10;1.00
31975;DHT22;18500;43.618;1.474;2023-02-11T06:49:32;-3.20;1.00
31975;DHT22;18500;43.618;1.474;2023-02-11T06:51:58;-3.20;1.00
31975;DHT22;18500;43.618;1.474;2023-02-11T06:54:24;-3.20;1.00
31975;DHT22;18500;43.618;1.474;2023-02-11T06:56:49;-3.20;1.00
31975;DHT22;18500;43.618;1.474;2023-02-11T06:59:16;-3.20;1.00
31975;DHT22;18500;43.618;1.474;2023-02-11T07:01:43;-3.30;1.00
31975;DHT22;18500;43.618;1.474;2023-02-11T07:04:09;-3.30;1.00
31975;DHT22;18500;43.618;1.474;2023-02-11T07:06:35;-3.30;1.00
31975;DHT22;18500;43.618;1.474;2023-02-11T07:09:02;-3.30;1.00
31975;DHT22;18500;43.618;1.474;2023-02-11T07:11:29;-3.20;1.00
31975;DHT22;18500;43.618;1.474;2023-02-11T07:14:00;-3.20;1.00
31975;DHT22;18500;43.618;1.474;2023-02-11T07:16:26;-3.10;1.00
31975;DHT22;18500;43.618;1.474;2023-02-11T07:18:52;-3.10;1.00
31975;DHT22;18500;43.618;1.474;2023-02-11T07:21:20;-3.10;1.00
31975;DHT22;18500;43.618;1.474;2023-02-11T07:23:46;-3.10;1.00
31975;DHT22;18500;43.618;1.474;2023-02-11T07:26:15;-2.90;1.00
31975;DHT22;18500;43.618;1.474;2023-02-11T07:28:41;-2.90;1.00
31975;DHT22;18500;43.618;1.474;2023-02-11T07:31:07;-2.90;1.00
31975;DHT22;18500;43.618;1.474;2023-02-11T07:33:35;-2.90;1.00
31975;DHT22;18500;43.618;1.474;2023-02-11T07:36:01;-2.80;1.00
31975;DHT22;18500;43.618;1.474;2023-02-11T07:38:27;-2.70;1.00
31975;DHT22;18500;43.618;1.474;2023-02-11T07:40:53;-2.70;1.00
31975;DHT22;18500;43.618;1.474;2023-02-11T07:43:18;-2.60;1.00
31975;DHT22;18500;43.618;1.474;2023-02-11T07:45:44;-2.50;1.00
31975;DHT22;18500;43.618;1.474;2023-02-11T07:48:10;-2.50;1.00
31975;DHT22;18500;43.618;1.474;2023-02-11T07:50:36;-2.40;1.00
31975;DHT22;18500;43.618;1.474;2023-02-11T07:53:01;-2.40;1.00
31975;DHT22;18500;43.618;1.474;2023-02-11T07:55:27;-2.30;1.00
31975;DHT22;18500;43.618;1.474;2023-02-11T07:57:53;-2.20;1.00
31975;DHT22;18500;43.618;1.474;2023-02-11T08:00:19;-2.20;1.00
31975;DHT22;18500;43.618;1.474;2023-02-11T08:02:44;-2.10;1.00
31975;DHT22;18500;43.618;1.474;2023-02-11T08:05:10;-2.10;1.00
31975;DHT22;18500;43.618;1.474;2023-02-11T08:07:36;-2.00;1.00
31975;DHT22;18500;43.618;1.474;2023-02-11T08:10:01;-1.90;1.00
31975;DHT22;18500;43.618;1.474;2023-02-11T08:12:27;-1.80;1.00
31975;DHT22;18500;43.618;1.474;2023-02-11T08:14:53;-1.70;1.00
31975;DHT22;18500;43.618;1.474;2023-02-11T08:17:19;-1.50;1.00
31975;DHT22;18500;43.618;1.474;2023-02-11T08:19:45;-1.40;1.00
31975;DHT22;18500;43.618;1.474;2023-02-11T08:22:10;-1.30;1.00
31975;DHT22;18500;43.618;1.474;2023-02-11T08:24:36;-1.20;1.00
31975;DHT22;18500;43.618;1.474;2023-02-11T08:27:02;-1.20;1.00
31975;DHT22;18500;43.618;1.474;2023-02-11T08:29:28;-1.00;1.00
31975;DHT22;18500;43.618;1.474;2023-02-11T08:31:54;-0.90;1.00
31975;DHT22;18500;43.618;1.474;2023-02-11T08:34:19;-0.90;1.00
31975;DHT22;18500;43.618;1.474;2023-02-11T08:36:46;-0.80;1.00
31975;DHT22;18500;43.618;1.474;2023-02-11T08:39:18;-0.80;1.00
31975;DHT22;18500;43.618;1.474;2023-02-11T08:41:49;-0.70;1.00
31975;DHT22;18500;43.618;1.474;2023-02-11T08:44:16;-0.60;1.00
31975;DHT22;18500;43.618;1.474;2023-02-11T08:46:42;-0.60;1.00
31975;DHT22;18500;43.618;1.474;2023-02-11T08:49:08;-0.60;1.00
31975;DHT22;18500;43.618;1.474;2023-02-11T08:51:34;-0.50;1.00
31975;DHT22;18500;43.618;1.474;2023-02-11T08:53:59;-0.50;1.00
31975;DHT22;18500;43.618;1.474;2023-02-11T08:56:26;-0.60;1.00
31975;DHT22;18500;43.618;1.474;2023-02-11T08:58:52;-0.50;1.00
31975;DHT22;18500;43.618;1.474;2023-02-11T09:01:22;-0.40;1.00
31975;DHT22;18500;43.618;1.474;2023-02-11T09:03:48;-0.40;1.00
31975;DHT22;18500;43.618;1.474;2023-02-11T09:06:14;-0.30;1.00
31975;DHT22;18500;43.618;1.474;2023-02-11T09:08:43;-0.20;1.00
31975;DHT22;18500;43.618;1.474;2023-02-11T09:11:10;-0.10;1.00
31975;DHT22;18500;43.618;1.474;2023-02-11T09:13:36;0.00;1.00
31975;DHT22;18500;43.618;1.474;2023-02-11T09:16:03;0.10;1.00
31975;DHT22;18500;43.618;1.474;2023-02-11T09:18:30;0.20;1.00
31975;DHT22;18500;43.618;1.474;2023-02-11T09:21:03;0.20;1.00
31975;DHT22;18500;43.618;1.474;2023-02-11T09:23:29;0.40;1.00
31975;DHT22;18500;43.618;1.474;2023-02-11T09:25:55;0.60;1.00
31975;DHT22;18500;43.618;1.474;2023-02-11T09:28:21;0.90;1.00
31975;DHT22;18500;43.618;1.474;2023-02-11T09:30:46;1.20;1.00
31975;DHT22;18500;43.618;1.474;2023-02-11T09:33:12;1.30;1.00
31975;DHT22;18500;43.618;1.474;2023-02-11T09:35:38;1.40;1.00
31975;DHT22;18500;43.618;1.474;2023-02-11T09:38:03;1.40;1.00
31975;DHT22;18500;43.618;1.474;2023-02-11T09:40:29;1.40;1.00
31975;DHT22;18500;43.618;1.474;2023-02-11T09:43:09;1.40;1.00
31975;DHT22;18500;43.618;1.474;2023-02-11T09:45:36;1.60;1.00
31975;DHT22;18500;43.618;1.474;2023-02-11T09:48:17;1.60;1.00
31975;DHT22;18500;43.618;1.474;2023-02-11T09:50:51;2.00;1.00
31975;DHT22;18500;43.618;1.474;2023-02-11T09:53:25;2.10;1.00
31975;DHT22;18500;43.618;1.474;2023-02-11T09:55:56;2.10;1.00
31975;DHT22;18500;43.618;1.474;2023-02-11T09:58:29;2.30;1.00
31975;DHT22;18500;43.618;1.474;2023-02-11T10:06:52;2.70;1.00
31975;DHT22;18500;43.618;1.474;2023-02-11T10:09:46;2.90;1.00
31975;DHT22;18500;43.618;1.474;2023-02-11T10:23:51;3.40;1.00
31975;DHT22;18500;43.618;1.474;2023-02-11T10:26:19;3.50;1.00
31975;DHT22;18500;43.618;1.474;2023-02-11T10:28:50;3.50;1.00
31975;DHT22;18500;43.618;1.474;2023-02-11T10:31:22;3.70;1.00
31975;DHT22;18500;43.618;1.474;2023-02-11T10:36:25;4.10;1.00
31975;DHT22;18500;43.618;1.474;2023-02-11T10:38:52;4.40;1.00
31975;DHT22;18500;43.618;1.474;2023-02-11T10:41:25;4.70;1.00
31975;DHT22;18500;43.618;1.474;2023-02-11T10:43:52;4.60;1.00
31975;DHT22;18500;43.618;1.474;2023-02-11T10:46:22;4.60;1.00
31975;DHT22;18500;43.618;1.474;2023-02-11T10:48:50;4.70;1.00
31975;DHT22;18500;43.618;1.474;2023-02-11T10:51:21;4.50;1.00
31975;DHT22;18500;43.618;1.474;2023-02-11T10:54:09;4.40;1.00
31975;DHT22;18500;43.618;1.474;2023-02-11T10:56:49;4.40;1.00
31975;DHT22;18500;43.618;1.474;2023-02-11T10:59:32;4.40;1.00
31975;DHT22;18500;43.618;1.474;2023-02-11T11:02:18;4.40;1.00
31975;DHT22;18500;43.618;1.474;2023-02-11T11:04:46;4.60;1.00
31975;DHT22;18500;43.618;1.474;2023-02-11T11:07:25;4.70;1.00
31975;DHT22;18500;43.618;1.474;2023-02-11T11:10:05;4.90;1.00
31975;DHT22;18500;43.618;1.474;2023-02-11T11:17:34;5.30;1.00
31975;DHT22;18500;43.618;1.474;2023-02-11T11:22:39;5.70;1.00
31975;DHT22;18500;43.618;1.474;2023-02-11T11:25:23;5.70;1.00
31975;DHT22;18500;43.618;1.474;2023-02-11T11:27:50;5.80;1.00
31975;DHT22;18500;43.618;1.474;2023-02-11T11:30:18;6.10;1.00
31975;DHT22;18500;43.618;1.474;2023-02-11T11:32:44;6.10;1.00
31975;DHT22;18500;43.618;1.474;2023-02-11T11:35:29;6.40;1.00
31975;DHT22;18500;43.618;1.474;2023-02-11T11:38:03;6.80;1.00
31975;DHT22;18500;43.618;1.474;2023-02-11T11:40:33;7.10;1.00
31975;DHT22;18500;43.618;1.474;2023-02-11T11:45:37;7.20;1.00
31975;DHT22;18500;43.618;1.474;2023-02-11T11:48:20;7.30;1.00
31975;DHT22;18500;43.618;1.474;2023-02-11T11:51:01;7.70;1.00
31975;DHT22;18500;43.618;1.474;2023-02-11T11:58:30;8.20;1.00
31975;DHT22;18500;43.618;1.474;2023-02-11T12:12:51;8.80;1.00
31975;DHT22;18500;43.618;1.474;2023-02-11T12:18:04;8.90;1.00
31975;DHT22;18500;43.618;1.474;2023-02-11T12:21:06;9.00;1.00
31975;DHT22;18500;43.618;1.474;2023-02-11T12:26:28;9.20;1.00
31975;DHT22;18500;43.618;1.474;2023-02-11T12:37:57;9.60;1.00
31975;DHT22;18500;43.618;1.474;2023-02-11T12:40:33;9.60;1.00
31975;DHT22;18500;43.618;1.474;2023-02-11T12:43:16;9.80;1.00
31975;DHT22;18500;43.618;1.474;2023-02-11T12:48:45;11.60;1.00
31975;DHT22;18500;43.618;1.474;2023-02-11T12:51:36;14.60;1.00
31975;DHT22;18500;43.618;1.474;2023-02-11T12:57:17;20.00;1.00
31975;DHT22;18500;43.618;1.474;2023-02-11T13:00:02;20.30;1.00
31975;DHT22;18500;43.618;1.474;2023-02-11T13:05:24;22.30;1.00
31975;DHT22;18500;43.618;1.474;2023-02-11T13:07:53;21.90;1.00
31975;DHT22;18500;43.618;1.474;2023-02-11T13:12:54;22.40;1.00
31975;DHT22;18500;43.618;1.474;2023-02-11T13:15:41;21.20;1.00
31975;DHT22;18500;43.618;1.474;2023-02-11T13:18:28;18.50;1.00
31975;DHT22;18500;43.618;1.474;2023-02-11T13:20:57;15.60;1.00
31975;DHT22;18500;43.618;1.474;2023-02-11T13:28:53;12.60;1.00
31975;DHT22;18500;43.618;1.474;2023-02-11T13:31:20;12.40;1.00
31975;DHT22;18500;43.618;1.474;2023-02-11T13:33:50;12.20;1.00
31975;DHT22;18500;43.618;1.474;2023-02-11T13:36:24;12.00;1.00
31975;DHT22;18500;43.618;1.474;2023-02-11T13:38:59;12.00;1.00
31975;DHT22;18500;43.618;1.474;2023-02-11T13:41:37;12.00;1.00
31975;DHT22;18500;43.618;1.474;2023-02-11T13:46:55;11.90;1.00
31975;DHT22;18500;43.618;1.474;2023-02-11T13:52:03;11.70;1.00
31975;DHT22;18500;43.618;1.474;2023-02-11T13:54:37;11.90;1.00
31975;DHT22;18500;43.618;1.474;2023-02-11T14:08:14;11.60;1.00
31975;DHT22;18500;43.618;1.474;2023-02-11T14:16:17;11.60;1.00
31975;DHT22;18500;43.618;1.474;2023-02-11T14:23:52;11.50;1.00
31975;DHT22;18500;43.618;1.474;2023-02-11T14:29:38;11.40;1.00
31975;DHT22;18500;43.618;1.474;2023-02-11T14:42:33;11.70;1.00
31975;DHT22;18500;43.618;1.474;2023-02-11T14:45:10;11.70;1.00
31975;DHT22;18500;43.618;1.474;2023-02-11T14:48:11;11.80;1.00
31975;DHT22;18500;43.618;1.474;2023-02-11T14:50:47;11.70;1.00
31975;DHT22;18500;43.618;1.474;2023-02-11T14:53:21;11.60;1.00
31975;DHT22;18500;43.618;1.474;2023-02-11T14:55:53;11.70;1.00
31975;DHT22;18500;43.618;1.474;2023-02-11T14:58:28;11.60;1.00
31975;DHT22;18500;43.618;1.474;2023-02-11T15:00:55;11.80;1.00
31975;DHT22;18500;43.618;1.474;2023-02-11T15:08:44;11.60;1.00
31975;DHT22;18500;43.618;1.474;2023-02-11T15:11:11;11.70;1.00
31975;DHT22;18500;43.618;1.474;2023-02-11T15:13:38;11.70;1.00
31975;DHT22;18500;43.618;1.474;2023-02-11T15:16:09;11.70;1.00
31975;DHT22;18500;43.618;1.474;2023-02-11T15:18:40;11.70;1.00
31975;DHT22;18500;43.618;1.474;2023-02-11T15:21:09;11.60;1.00
31975;DHT22;18500;43.618;1.474;2023-02-11T15:23:35;11.70;1.00
31975;DHT22;18500;43.618;1.474;2023-02-11T15:26:02;11.60;1.00
31975;DHT22;18500;43.618;1.474;2023-02-11T15:28:33;11.60;1.00
31975;DHT22;18500;43.618;1.474;2023-02-11T15:31:03;11.70;1.00
31975;DHT22;18500;43.618;1.474;2023-02-11T15:33:30;11.60;1.00
31975;DHT22;18500;43.618;1.474;2023-02-11T15:35:58;11.50;1.00
31975;DHT22;18500;43.618;1.474;2023-02-11T15:38:24;11.60;1.00
31975;DHT22;18500;43.618;1.474;2023-02-11T15:40:59;11.60;1.00
31975;DHT22;18500;43.618;1.474;2023-02-11T15:43:43;11.60;1.00
31975;DHT22;18500;43.618;1.474;2023-02-11T15:46:11;11.60;1.00
31975;DHT22;18500;43.618;1.474;2023-02-11T15:48:43;12.70;1.00
31975;DHT22;18500;43.618;1.474;2023-02-11T15:51:33;12.70;1.00
31975;DHT22;18500;43.618;1.474;2023-02-11T15:54:18;12.50;1.00
31975;DHT22;18500;43.618;1.474;2023-02-11T15:56:48;12.10;1.00
31975;DHT22;18500;43.618;1.474;2023-02-11T15:59:15;11.80;1.00
31975;DHT22;18500;43.618;1.474;2023-02-11T16:01:41;11.60;1.00
31975;DHT22;18500;43.618;1.474;2023-02-11T16:04:15;11.50;1.00
31975;DHT22;18500;43.618;1.474;2023-02-11T16:06:42;11.40;1.00
31975;DHT22;18500;43.618;1.474;2023-02-11T16:19:26;11.20;1.00
31975;DHT22;18500;43.618;1.474;2023-02-11T16:21:53;11.10;1.00
31975;DHT22;18500;43.618;1.474;2023-02-11T16:24:25;10.90;1.00
31975;DHT22;18500;43.618;1.474;2023-02-11T16:27:00;10.90;1.00
31975;DHT22;18500;43.618;1.474;2023-02-11T16:29:29;10.80;1.00
31975;DHT22;18500;43.618;1.474;2023-02-11T16:32:17;10.40;1.00
31975;DHT22;18500;43.618;1.474;2023-02-11T16:34:43;10.10;1.00
31975;DHT22;18500;43.618;1.474;2023-02-11T16:37:09;10.10;1.00
31975;DHT22;18500;43.618;1.474;2023-02-11T16:39:35;9.90;1.00
31975;DHT22;18500;43.618;1.474;2023-02-11T16:42:00;9.90;1.00
31975;DHT22;18500;43.618;1.474;2023-02-11T16:44:27;9.80;1.00
31975;DHT22;18500;43.618;1.474;2023-02-11T16:46:53;9.60;1.00
31975;DHT22;18500;43.618;1.474;2023-02-11T16:49:25;9.40;1.00
31975;DHT22;18500;43.618;1.474;2023-02-11T16:51:54;9.20;1.00
31975;DHT22;18500;43.618;1.474;2023-02-11T16:54:22;9.20;1.00
31975;DHT22;18500;43.618;1.474;2023-02-11T16:56:48;9.10;1.00
31975;DHT22;18500;43.618;1.474;2023-02-11T16:59:14;9.00;1.00
31975;DHT22;18500;43.618;1.474;2023-02-11T17:01:41;8.60;1.00
31975;DHT22;18500;43.618;1.474;2023-02-11T17:04:28;8.70;1.00
31975;DHT22;18500;43.618;1.474;2023-02-11T17:06:54;8.50;1.00
31975;DHT22;18500;43.618;1.474;2023-02-11T17:09:23;8.20;1.00
31975;DHT22;18500;43.618;1.474;2023-02-11T17:11:50;8.10;1.00
31975;DHT22;18500;43.618;1.474;2023-02-11T17:14:16;8.20;1.00
31975;DHT22;18500;43.618;1.474;2023-02-11T17:16:43;8.20;1.00
31975;DHT22;18500;43.618;1.474;2023-02-11T17:19:15;8.10;1.00
31975;DHT22;18500;43.618;1.474;2023-02-11T17:21:46;8.00;1.00
31975;DHT22;18500;43.618;1.474;2023-02-11T17:24:12;8.00;1.00
31975;DHT22;18500;43.618;1.474;2023-02-11T17:26:40;7.70;1.00
31975;DHT22;18500;43.618;1.474;2023-02-11T17:29:08;7.50;1.00
31975;DHT22;18500;43.618;1.474;2023-02-11T17:31:36;7.40;1.00
31975;DHT22;18500;43.618;1.474;2023-02-11T17:34:02;7.60;1.00
31975;DHT22;18500;43.618;1.474;2023-02-11T17:36:28;7.70;1.00
31975;DHT22;18500;43.618;1.474;2023-02-11T17:38:56;7.70;1.00
31975;DHT22;18500;43.618;1.474;2023-02-11T17:41:22;7.80;1.00
31975;DHT22;18500;43.618;1.474;2023-02-11T17:43:48;7.80;1.00
31975;DHT22;18500;43.618;1.474;2023-02-11T17:46:14;7.80;1.00
31975;DHT22;18500;43.618;1.474;2023-02-11T17:48:39;7.60;1.00
31975;DHT22;18500;43.618;1.474;2023-02-11T17:53:46;7.80;1.00
31975;DHT22;18500;43.618;1.474;2023-02-11T17:56:12;7.70;1.00
31975;DHT22;18500;43.618;1.474;2023-02-11T17:58:38;7.60;1.00
31975;DHT22;18500;43.618;1.474;2023-02-11T18:01:04;7.60;1.00
31975;DHT22;18500;43.618;1.474;2023-02-11T18:03:29;7.60;1.00
31975;DHT22;18500;43.618;1.474;2023-02-11T18:06:03;7.60;1.00
31975;DHT22;18500;43.618;1.474;2023-02-11T18:08:29;7.50;1.00
31975;DHT22;18500;43.618;1.474;2023-02-11T18:10:55;7.50;1.00
31975;DHT22;18500;43.618;1.474;2023-02-11T18:13:21;7.40;1.00
31975;DHT22;18500;43.618;1.474;2023-02-11T18:15:47;7.40;1.00
31975;DHT22;18500;43.618;1.474;2023-02-11T18:18:12;7.30;1.00
31975;DHT22;18500;43.618;1.474;2023-02-11T18:20:38;7.10;1.00
31975;DHT22;18500;43.618;1.474;2023-02-11T18:23:10;7.00;1.00
31975;DHT22;18500;43.618;1.474;2023-02-11T18:25:36;7.00;1.00
31975;DHT22;18500;43.618;1.474;2023-02-11T18:28:02;6.90;1.00
31975;DHT22;18500;43.618;1.474;2023-02-11T18:30:28;6.90;1.00
31975;DHT22;18500;43.618;1.474;2023-02-11T18:32:56;6.90;1.00
31975;DHT22;18500;43.618;1.474;2023-02-11T18:35:22;6.80;1.00
31975;DHT22;18500;43.618;1.474;2023-02-11T18:37:48;6.80;1.00
31975;DHT22;18500;43.618;1.474;2023-02-11T18:40:15;6.80;1.00
31975;DHT22;18500;43.618;1.474;2023-02-11T18:42:41;6.70;1.00
31975;DHT22;18500;43.618;1.474;2023-02-11T18:45:09;6.70;1.00
31975;DHT22;18500;43.618;1.474;2023-02-11T18:47:36;6.70;1.00
31975;DHT22;18500;43.618;1.474;2023-02-11T18:50:03;6.40;1.00
31975;DHT22;18500;43.618;1.474;2023-02-11T18:52:29;6.10;1.00
31975;DHT22;18500;43.618;1.474;2023-02-11T18:54:56;5.90;1.00
31975;DHT22;18500;43.618;1.474;2023-02-11T18:57:22;5.80;1.00
31975;DHT22;18500;43.618;1.474;2023-02-11T18:59:48;5.80;1.00